Portugalete, Spain
Current Conditions -  °F | °C
As of 1:00 PM on Monday 24 Nov 2014 (Local Time) from LEBB Reporting Station
Broken Clouds Broken Clouds  
Wind Chill: 61°   Ceiling: 2800
Heat Index: 61°   Visibility: 6mi
Dew Point: 57°   Wind: 8mph
Humidity: 88%   Direction: 330°NNW
Pressure: 30.12"   Gusts: NA
Location:  43.32°N, 3.02°W
Report Text: LEBB 241200Z 33007KT 290V350 9999 FEW016 SCT022 BKN02816/14 Q1020 NOSIG
Loading
Personal Weather Stations






























Interactive Weather Map New forecast layout! Learn more

10-Day Weather Forecast

Advertisements
Track Severe Weather on mobile